Time;durP1;ratioP1;P1;durP2;ratioP2;P2;SDS_P1;SDS_P2;PMS_P1;PMS_P2;Temp;Humidity;BMP_temperature;BMP_pressure;BME280_temperature;BME280_humidity;BME280_pressure;Samples;Min_cycle;Max_cycle;Signal;HPM_P1;HPM_P2
2022/01/02 00:00:04;;;;;;;9.48;5.20;;;;;;;6.83;100.00;98862.03;10463792;28;20059;-61
2022/01/02 00:05:09;;;;;;;11.05;5.50;;;;;;;6.97;100.00;98841.28;10456142;28;20057;-59
2022/01/02 00:10:14;;;;;;;10.02;4.68;;;;;;;7.06;100.00;98844.06;10458013;28;20040;-61
2022/01/02 00:15:20;;;;;;;11.25;5.15;;;;;;;7.15;100.00;98828.16;10453373;28;20049;-60
2022/01/02 00:20:32;;;;;;;11.10;5.13;;;;;;;7.19;100.00;98811.69;10456127;28;20055;-58
2022/01/02 00:25:40;;;;;;;10.40;4.90;;;;;;;7.15;100.00;98804.06;10453359;28;20132;-60
2022/01/02 00:30:45;;;;;;;9.20;4.55;;;;;;;7.11;100.00;98790.06;10449303;28;20123;-61
2022/01/02 00:35:48;;;;;;;7.90;4.40;;;;;;;7.07;100.00;98792.16;10434584;28;20056;-61
2022/01/02 00:40:55;;;;;;;9.07;4.82;;;;;;;7.08;100.00;98790.31;10452263;28;20508;-59
2022/01/02 00:46:00;;;;;;;8.88;4.93;;;;;;;7.15;100.00;98779.94;10448904;28;20040;-60
2022/01/02 00:51:05;;;;;;;7.93;4.65;;;;;;;7.23;100.00;98789.03;10463380;28;20056;-61
2022/01/02 00:56:13;;;;;;;9.98;5.22;;;;;;;7.36;100.00;98780.78;10434350;28;20060;-59
2022/01/02 01:01:19;;;;;;;10.18;4.35;;;;;;;7.38;100.00;98781.50;10434515;28;20041;-62
2022/01/02 01:06:25;;;;;;;9.65;5.10;;;;;;;7.42;100.00;98762.47;10472408;28;20048;-61
2022/01/02 01:11:30;;;;;;;9.35;4.90;;;;;;;7.48;100.00;98746.72;10448376;28;20389;-61
2022/01/02 01:16:33;;;;;;;9.07;4.80;;;;;;;7.49;100.00;98731.47;10463999;28;20048;-60
2022/01/02 01:21:36;;;;;;;9.82;4.82;;;;;;;7.46;100.00;98743.31;10440628;28;20040;-61
2022/01/02 01:26:41;;;;;;;7.75;4.57;;;;;;;7.46;100.00;98746.00;10454177;28;20441;-60
2022/01/02 01:31:46;;;;;;;8.90;4.75;;;;;;;7.44;100.00;98725.66;10466118;28;20041;-55
2022/01/02 01:36:50;;;;;;;10.32;5.20;;;;;;;7.40;100.00;98720.56;10441909;28;20080;-56
2022/01/02 01:41:56;;;;;;;8.25;4.93;;;;;;;7.34;100.00;98737.19;10438083;28;20102;-61
2022/01/02 01:46:59;;;;;;;10.90;4.93;;;;;;;7.36;100.00;98718.28;10434672;28;20049;-61
2022/01/02 01:52:04;;;;;;;8.70;4.90;;;;;;;7.37;100.00;98709.28;10436447;28;20048;-61
2022/01/02 01:57:09;;;;;;;12.43;4.38;;;;;;;7.40;100.00;98709.84;10464752;28;20053;-63
2022/01/02 02:02:15;;;;;;;10.55;4.60;;;;;;;7.39;100.00;98700.09;10462961;28;20052;-63
2022/01/02 02:07:26;;;;;;;7.22;4.32;;;;;;;7.38;100.00;98705.63;10430479;28;20525;-60
2022/01/02 02:12:32;;;;;;;9.45;4.60;;;;;;;7.38;100.00;98706.44;10437384;28;20406;-63
2022/01/02 02:17:39;;;;;;;7.50;4.28;;;;;;;7.37;100.00;98698.56;10431104;28;20049;-64
2022/01/02 02:22:47;;;;;;;7.53;4.15;;;;;;;7.39;100.00;98680.50;10449507;28;20040;-64
2022/01/02 02:27:51;;;;;;;8.98;3.97;;;;;;;7.38;100.00;98657.38;10451918;28;20052;-63
2022/01/02 02:32:55;;;;;;;8.38;4.50;;;;;;;7.41;100.00;98632.94;10423369;28;20056;-61
2022/01/02 02:38:02;;;;;;;7.50;3.92;;;;;;;7.35;100.00;98642.38;10459649;28;20068;-64
2022/01/02 02:43:14;;;;;;;10.20;4.22;;;;;;;7.36;100.00;98648.59;10428719;28;20505;-64
2022/01/02 02:53:43;;;;;;;9.03;4.60;;;;;;;7.39;100.00;98648.34;10425248;28;20035;-61
2022/01/02 02:58:49;;;;;;;8.10;4.40;;;;;;;7.36;100.00;98630.69;10446621;28;20496;-58
2022/01/02 03:03:55;;;;;;;8.00;4.30;;;;;;;7.42;100.00;98649.91;10434519;28;20048;-58
2022/01/02 03:09:06;;;;;;;9.38;4.40;;;;;;;7.43;100.00;98638.19;10454252;28;20545;-60
2022/01/02 03:14:13;;;;;;;8.93;4.60;;;;;;;7.39;100.00;98641.13;10438159;28;20144;-59
2022/01/02 03:19:18;;;;;;;8.50;4.50;;;;;;;7.36;100.00;98628.00;10438017;28;20143;-58
2022/01/02 03:24:23;;;;;;;6.97;4.22;;;;;;;7.37;100.00;98627.00;10435331;28;20041;-61
2022/01/02 03:29:26;;;;;;;10.98;5.35;;;;;;;7.47;100.00;98620.81;10430912;28;20186;-61
2022/01/02 03:34:30;;;;;;;7.28;4.47;;;;;;;7.51;100.00;98624.94;10425885;28;20130;-60
2022/01/02 03:39:36;;;;;;;9.30;4.30;;;;;;;7.64;100.00;98619.34;10468871;28;20045;-61
2022/01/02 03:44:41;;;;;;;9.65;5.35;;;;;;;7.67;100.00;98609.19;10465748;28;20049;-60
2022/01/02 03:49:44;;;;;;;8.25;4.40;;;;;;;7.84;100.00;98609.47;10474485;28;20045;-63
2022/01/02 03:54:48;;;;;;;9.38;5.28;;;;;;;7.87;100.00;98603.84;10437003;28;20144;-61
2022/01/02 03:59:52;;;;;;;8.13;4.40;;;;;;;8.00;100.00;98593.69;10455666;28;20049;-60
2022/01/02 04:04:57;;;;;;;10.25;5.18;;;;;;;8.00;100.00;98593.69;10460137;28;20332;-57
2022/01/02 04:10:05;;;;;;;9.55;4.97;;;;;;;7.93;100.00;98579.16;10440454;28;20055;-59
2022/01/02 04:15:11;;;;;;;9.38;4.88;;;;;;;8.01;100.00;98562.34;10434695;28;20053;-57
2022/01/02 04:20:15;;;;;;;9.23;4.65;;;;;;;8.09;100.00;98549.06;10462205;28;20048;-56
2022/01/02 04:25:20;;;;;;;8.60;4.40;;;;;;;8.06;100.00;98541.31;10468651;28;20045;-61
2022/01/02 04:30:23;;;;;;;9.23;4.88;;;;;;;8.04;100.00;98529.84;10432938;28;20045;-59
2022/01/02 04:35:26;;;;;;;10.45;5.18;;;;;;;7.96;100.00;98535.09;10453603;28;20643;-66
2022/01/02 04:40:31;;;;;;;10.70;4.97;;;;;;;7.89;100.00;98525.91;10431836;28;20057;-55
2022/01/02 04:45:34;;;;;;;9.75;4.93;;;;;;;7.87;100.00;98536.78;10435100;28;20140;-58
2022/01/02 04:50:38;;;;;;;10.15;4.97;;;;;;;7.82;100.00;98526.47;10433236;28;20191;-58
2022/01/02 04:55:43;;;;;;;6.63;4.60;;;;;;;7.81;100.00;98521.28;10447514;28;20396;-57
2022/01/02 05:00:46;;;;;;;8.43;4.43;;;;;;;7.79;100.00;98507.16;10437123;28;20471;-58
2022/01/02 05:05:50;;;;;;;8.43;4.35;;;;;;;7.74;100.00;98504.03;10447191;28;20044;-59
2022/01/02 05:10:55;;;;;;;11.65;5.28;;;;;;;7.62;100.00;98504.16;10438579;28;20064;-62
2022/01/02 05:15:59;;;;;;;9.43;4.80;;;;;;;7.51;100.00;98507.00;10441736;28;20063;-66
2022/01/02 05:21:03;;;;;;;7.53;4.85;;;;;;;7.55;100.00;98511.94;10446562;28;20056;-60
2022/01/02 05:26:08;;;;;;;7.72;5.05;;;;;;;7.58;100.00;98502.78;10443197;28;20040;-56
2022/01/02 05:31:12;;;;;;;9.73;5.20;;;;;;;7.54;100.00;98506.72;10440547;28;20460;-56
2022/01/02 05:36:15;;;;;;;9.75;5.15;;;;;;;7.52;100.00;98506.88;10480670;28;20132;-62
2022/01/02 05:41:21;;;;;;;8.10;5.05;;;;;;;7.61;100.00;98510.53;10439404;28;20048;-63
2022/01/02 05:46:24;;;;;;;8.82;4.85;;;;;;;7.67;100.00;98509.09;10456717;28;20045;-55
2022/01/02 05:51:28;;;;;;;8.65;4.60;;;;;;;7.66;100.00;98512.78;10441388;28;20052;-61
2022/01/02 05:56:33;;;;;;;8.82;4.50;;;;;;;7.67;100.00;98498.38;10438377;28;20052;-60
2022/01/02 06:01:36;;;;;;;9.43;4.85;;;;;;;7.65;100.00;98484.25;10430327;28;20068;-58
2022/01/02 06:06:39;;;;;;;9.00;4.30;;;;;;;7.64;100.00;98504.88;10434284;28;20127;-58
2022/01/02 06:11:44;;;;;;;9.05;5.13;;;;;;;7.65;100.00;98501.22;10438985;28;20053;-58
2022/01/02 06:16:47;;;;;;;7.07;4.50;;;;;;;7.65;100.00;98486.94;10442137;28;20041;-56
2022/01/02 06:21:50;;;;;;;8.35;4.97;;;;;;;7.71;100.00;98486.41;10443035;28;20555;-59
2022/01/02 06:26:55;;;;;;;7.93;4.80;;;;;;;7.69;100.00;98473.16;10436197;28;20133;-57
2022/01/02 06:31:59;;;;;;;6.72;4.43;;;;;;;7.72;100.00;98469.31;10440872;28;20478;-59
2022/01/02 06:37:02;;;;;;;7.95;4.18;;;;;;;7.76;100.00;98472.56;10456808;28;20059;-58
2022/01/02 06:42:08;;;;;;;7.10;4.30;;;;;;;7.76;100.00;98488.66;10444679;28;20047;-62
2022/01/02 06:47:18;;;;;;;7.75;4.50;;;;;;;7.78;100.00;98476.78;10465000;28;20068;-59
2022/01/02 06:52:25;;;;;;;7.75;4.25;;;;;;;7.83;100.00;98484.41;10444091;28;20414;-57
2022/01/02 06:57:30;;;;;;;7.13;4.07;;;;;;;7.90;100.00;98480.19;10441338;28;20067;-61
2022/01/02 07:02:34;;;;;;;5.78;4.03;;;;;;;7.90;100.00;98471.28;10426362;28;20045;-60
2022/01/02 07:07:40;;;;;;;7.47;4.03;;;;;;;7.93;100.00;98484.41;10426739;28;20052;-58
2022/01/02 07:12:45;;;;;;;7.35;4.10;;;;;;;8.00;100.00;98481.00;10447256;28;20139;-62
2022/01/02 07:17:48;;;;;;;7.10;3.90;;;;;;;8.03;100.00;98474.50;10454232;28;20041;-54
2022/01/02 07:22:51;;;;;;;8.82;4.88;;;;;;;8.03;100.00;98477.19;10445853;28;20052;-57
2022/01/02 07:27:55;;;;;;;8.77;4.93;;;;;;;8.06;100.00;98476.03;10455921;28;20550;-62
2022/01/02 07:33:01;;;;;;;7.40;4.10;;;;;;;8.00;100.00;98467.59;10451259;28;20084;-55
2022/01/02 07:38:04;;;;;;;6.95;3.92;;;;;;;8.01;100.00;98471.09;10455422;28;20073;-64
2022/01/02 07:43:09;;;;;;;8.90;4.38;;;;;;;8.01;100.00;98485.38;10462709;28;20037;-57
2022/01/02 07:48:12;;;;;;;7.45;3.83;;;;;;;8.02;100.00;98479.03;10460880;28;20045;-56
2022/01/02 07:53:15;;;;;;;6.95;3.95;;;;;;;8.03;100.00;98455.72;10457696;28;20052;-57
2022/01/02 07:58:20;;;;;;;6.38;3.72;;;;;;;8.00;100.00;98464.91;10459938;28;20051;-57
2022/01/02 08:03:23;;;;;;;4.68;3.20;;;;;;;8.05;100.00;98471.69;10460724;28;20048;-56
2022/01/02 08:08:26;;;;;;;5.50;3.67;;;;;;;8.08;100.00;98460.66;10436138;28;20047;-55
2022/01/02 08:13:31;;;;;;;5.32;3.53;;;;;;;8.12;100.00;98435.22;10459822;28;20539;-55
2022/01/02 08:18:34;;;;;;;4.55;3.28;;;;;;;8.17;100.00;98446.38;10466474;28;20044;-64
2022/01/02 08:23:37;;;;;;;8.00;4.65;;;;;;;8.22;100.00;98446.78;10468450;28;20457;-60
2022/01/02 08:29:00;;;;;;;6.68;4.07;;;;;;;8.25;100.00;98435.75;10462652;28;20456;-63
2022/01/02 08:34:03;;;;;;;5.95;3.80;;;;;;;8.30;100.00;98430.78;10444715;28;20072;-56
2022/01/02 08:39:06;;;;;;;4.93;3.58;;;;;;;8.37;100.00;98423.00;10459947;28;20452;-63
2022/01/02 08:44:10;;;;;;;7.15;4.40;;;;;;;8.40;100.00;98411.97;10459176;28;20504;-57
2022/01/02 08:49:13;;;;;;;6.10;3.83;;;;;;;8.47;100.00;98412.22;10477484;28;20063;-59
2022/01/02 08:54:17;;;;;;;5.65;3.13;;;;;;;8.54;100.00;98402.59;10486958;28;20073;-61
2022/01/02 08:59:24;;;;;;;6.35;3.10;;;;;;;8.62;100.00;98401.88;10475014;23;20061;-61
2022/01/02 09:04:28;;;;;;;5.78;3.30;;;;;;;8.71;100.00;98381.31;10429283;28;20053;-57
2022/01/02 09:09:33;;;;;;;7.95;3.47;;;;;;;8.78;100.00;98383.25;10455728;28;20056;-55
2022/01/02 09:14:38;;;;;;;5.68;3.10;;;;;;;8.89;100.00;98362.56;10466445;28;20130;-54
2022/01/02 09:19:41;;;;;;;5.05;2.90;;;;;;;8.96;100.00;98368.16;10468262;28;20047;-53
2022/01/02 09:24:44;;;;;;;13.77;5.10;;;;;;;9.25;100.00;98368.75;10452423;28;20040;-53
2022/01/02 09:29:48;;;;;;;7.22;2.67;;;;;;;9.41;100.00;98367.22;10461008;28;20176;-57
2022/01/02 09:34:51;;;;;;;5.20;3.00;;;;;;;9.46;100.00;98337.19;10469631;28;20040;-56
2022/01/02 09:39:54;;;;;;;5.53;2.80;;;;;;;9.47;100.00;98333.50;10454255;28;20127;-55
2022/01/02 09:44:59;;;;;;;4.68;2.75;;;;;;;9.49;100.00;98316.19;10442607;28;20175;-54
2022/01/02 09:50:05;;;;;;;4.38;2.55;;;;;;;9.52;100.00;98313.19;10457863;28;20385;-56
2022/01/02 09:55:10;;;;;;;4.82;2.90;;;;;;;9.51;100.00;98305.31;10454390;28;20047;-55
2022/01/02 10:00:17;;;;;;;3.33;2.50;;;;;;;9.55;100.00;98304.81;10463207;28;20053;-55
2022/01/02 10:05:21;;;;;;;4.22;2.28;;;;;;;9.56;100.00;98285.00;10462349;28;20047;-57
2022/01/02 10:10:33;;;;;;;3.58;2.20;;;;;;;9.55;100.00;98269.88;10468723;28;20044;-56
2022/01/02 10:22:37;;;;;;;5.20;2.67;;;;;;;9.58;100.00;98270.56;10451288;28;20107;-55
2022/01/02 10:27:41;;;;;;;5.15;3.08;;;;;;;9.63;100.00;98252.06;10454455;28;20076;-59
2022/01/02 10:32:44;;;;;;;4.50;2.70;;;;;;;9.71;100.00;98244.03;10457478;28;20512;-58
2022/01/02 10:37:54;;;;;;;3.97;2.58;;;;;;;9.84;100.00;98238.22;10458766;28;20127;-59
2022/01/02 10:42:59;;;;;;;5.80;3.58;;;;;;;9.94;100.00;98235.41;10452975;28;20041;-55
2022/01/02 10:48:02;;;;;;;5.90;3.50;;;;;;;10.03;100.00;98215.59;10427404;28;20493;-53
2022/01/02 10:53:15;;;;;;;4.18;2.80;;;;;;;10.09;100.00;98182.66;10457140;28;20051;-55
2022/01/02 10:58:18;;;;;;;6.18;3.63;;;;;;;10.20;100.00;98177.94;10461844;28;20499;-58
2022/01/02 11:03:24;;;;;;;4.53;2.80;;;;;;;10.23;100.00;98169.56;10471813;28;20055;-60
2022/01/02 11:08:33;;;;;;;5.07;2.80;;;;;;;10.26;100.00;98188.91;10474196;28;20056;-55
2022/01/02 11:13:36;;;;;;;4.63;2.78;;;;;;;10.32;100.00;98192.78;10477091;28;20056;-54
2022/01/02 11:18:40;;;;;;;6.88;3.10;;;;;;;10.35;100.00;98165.53;10481056;28;20058;-52
2022/01/02 11:23:54;;;;;;;5.63;3.58;;;;;;;10.39;100.00;98145.38;10480553;28;20489;-51
2022/01/02 11:28:58;;;;;;;5.05;2.95;;;;;;;10.45;100.00;98133.09;10482498;28;20052;-57
2022/01/02 11:34:20;;;;;;;3.55;2.50;;;;;;;10.50;100.00;98108.34;10479048;28;20048;-57
2022/01/02 11:39:25;;;;;;;6.22;2.70;;;;;;;10.53;100.00;98097.22;10474385;28;20567;-59
2022/01/02 11:44:48;;;;;;;5.63;3.10;;;;;;;10.51;100.00;98104.66;10481462;28;20123;-57
2022/01/02 11:49:52;;;;;;;5.38;3.00;;;;;;;10.51;100.00;98116.25;10474520;28;20052;-51
2022/01/02 11:55:01;;;;;;;4.78;3.10;;;;;;;10.51;100.00;98100.09;10460618;28;20041;-54
2022/01/02 12:00:07;;;;;;;8.40;3.33;;;;;;;10.46;100.00;98103.31;10461541;28;20056;-57
2022/01/02 12:05:13;;;;;;;7.15;3.63;;;;;;;10.41;100.00;98094.88;10457141;28;20044;-53
2022/01/02 12:10:27;;;;;;;6.32;3.22;;;;;;;10.44;100.00;98083.78;10451257;28;20052;-51
2022/01/02 12:16:08;;;;;;;6.30;2.80;;;;;;;10.40;100.00;98090.53;10455976;28;20049;-51
2022/01/02 12:21:14;;;;;;;5.80;3.28;;;;;;;10.37;100.00;98061.19;10454560;28;20497;-55
2022/01/02 12:26:21;;;;;;;6.13;3.50;;;;;;;10.33;100.00;98032.91;10451827;28;20048;-51
2022/01/02 12:31:28;;;;;;;4.53;3.10;;;;;;;10.33;100.00;97995.22;10457938;28;20462;-55
2022/01/02 12:36:31;;;;;;;5.40;3.00;;;;;;;10.33;100.00;97989.84;10460635;28;20466;-51
2022/01/02 12:41:37;;;;;;;3.70;2.47;;;;;;;10.32;100.00;97974.69;10465898;28;20098;-57
2022/01/02 12:46:44;;;;;;;3.53;2.50;;;;;;;10.36;100.00;97950.94;10462326;28;20265;-52
2022/01/02 12:51:49;;;;;;;5.03;2.65;;;;;;;10.40;100.00;97950.50;10461747;28;20055;-52
2022/01/02 12:56:55;;;;;;;3.75;2.10;;;;;;;10.47;100.00;97948.78;10468721;28;20045;-52
2022/01/02 13:02:03;;;;;;;3.85;2.60;;;;;;;10.50;100.00;97941.38;10472071;28;20135;-51
2022/01/02 13:07:12;;;;;;;3.75;2.25;;;;;;;10.52;100.00;97939.34;10469356;28;20045;-51
2022/01/02 13:12:18;;;;;;;7.03;2.50;;;;;;;10.55;100.00;97953.31;10453263;28;20049;-56
2022/01/02 13:17:25;;;;;;;2.92;2.30;;;;;;;10.59;100.00;97929.56;10448804;28;20045;-53
2022/01/02 13:22:31;;;;;;;3.53;2.30;;;;;;;10.62;100.00;97919.28;10475402;28;20493;-53
2022/01/02 13:28:00;;;;;;;3.22;2.40;;;;;;;10.66;100.00;97889.28;10473614;28;20139;-58
2022/01/02 13:33:03;;;;;;;2.63;1.90;;;;;;;10.72;100.00;97867.03;10472367;28;20036;-52
2022/01/02 13:38:06;;;;;;;4.88;2.42;;;;;;;10.77;100.00;97868.19;10476584;28;20051;-57
2022/01/02 13:43:13;;;;;;;3.67;2.67;;;;;;;10.77;100.00;97865.47;10473918;28;20400;-51
2022/01/02 13:48:19;;;;;;;3.17;2.28;;;;;;;10.76;100.00;97849.50;10469301;28;20128;-57
2022/01/02 13:53:24;;;;;;;4.95;2.67;;;;;;;10.77;100.00;97852.00;10474838;28;20076;-51
2022/01/02 13:58:30;;;;;;;6.40;2.28;;;;;;;10.77;100.00;97853.88;10466639;28;20044;-52
2022/01/02 14:03:36;;;;;;;3.25;2.30;;;;;;;10.66;100.00;97871.25;10456005;28;20123;-51
2022/01/02 14:08:41;;;;;;;6.22;2.45;;;;;;;10.78;100.00;97869.84;10450456;28;20048;-51
2022/01/02 14:14:09;;;;;;;3.55;2.40;;;;;;;10.95;100.00;97869.78;10475509;28;20056;-51
2022/01/02 14:19:12;;;;;;;4.70;2.33;;;;;;;11.08;100.00;97861.97;10457938;28;20120;-55
2022/01/02 14:24:15;;;;;;;7.10;2.50;;;;;;;11.08;100.00;97853.88;10467101;28;20052;-55
2022/01/02 14:29:19;;;;;;;3.33;2.25;;;;;;;11.14;100.00;97835.28;10438226;28;20048;-60
2022/01/02 14:34:23;;;;;;;3.63;2.60;;;;;;;11.14;100.00;97848.75;10465489;28;20049;-52
2022/01/02 14:39:27;;;;;;;4.65;2.72;;;;;;;11.07;100.00;97881.84;10467499;28;20032;-56
2022/01/02 14:44:31;;;;;;;4.45;2.95;;;;;;;10.83;100.00;97882.81;10442079;28;20131;-59
2022/01/02 14:49:35;;;;;;;4.55;2.90;;;;;;;10.63;100.00;97882.41;10459052;28;20111;-51
2022/01/02 14:54:38;;;;;;;4.63;2.50;;;;;;;10.58;100.00;97887.47;10451917;28;20084;-58
2022/01/02 14:59:49;;;;;;;5.65;2.80;;;;;;;10.44;100.00;97889.88;10456332;22;20049;-56
2022/01/02 15:04:51;;;;;;;5.15;2.72;;;;;;;10.31;100.00;97903.00;10450392;28;20041;-53
2022/01/02 15:09:54;;;;;;;3.30;2.38;;;;;;;10.28;100.00;97916.84;10456125;28;20504;-56
2022/01/02 15:14:59;;;;;;;5.00;2.22;;;;;;;10.42;100.00;97918.81;10460066;28;20178;-57
2022/01/02 15:20:04;;;;;;;5.07;2.00;;;;;;;10.32;100.00;97924.38;10452194;28;20041;-54
2022/01/02 15:25:08;;;;;;;5.00;2.20;;;;;;;10.26;100.00;97908.91;10458272;28;20060;-53
2022/01/02 15:30:13;;;;;;;3.53;2.00;;;;;;;10.23;100.00;97916.50;10436143;28;20049;-53
2022/01/02 15:35:16;;;;;;;3.15;2.15;;;;;;;10.12;100.00;97918.53;10446095;28;20045;-57
2022/01/02 15:40:22;;;;;;;5.65;2.50;;;;;;;10.10;100.00;97909.78;10451531;28;20060;-63
2022/01/02 15:45:26;;;;;;;4.18;2.50;;;;;;;10.14;100.00;97929.97;10455279;28;20045;-57
2022/01/02 15:50:30;;;;;;;5.00;2.22;;;;;;;9.92;100.00;97950.34;10452595;28;20438;-58
2022/01/02 15:55:34;;;;;;;5.93;2.35;;;;;;;9.77;100.00;97958.25;10454780;28;20048;-55
2022/01/02 16:00:55;;;;;;;4.18;2.35;;;;;;;9.81;100.00;97986.50;10475534;28;20049;-58
2022/01/02 16:06:00;;;;;;;4.60;2.70;;;;;;;9.88;100.00;97983.97;10477410;28;20044;-58
2022/01/02 16:38:47;;;;;;;6.80;2.42;;;;;;;9.95;100.00;97992.22;10399353;28;20516;-61
2022/01/02 16:43:51;;;;;;;4.50;2.40;;;;;;;9.95;100.00;97998.44;10435941;28;20052;-64
2022/01/02 16:48:54;;;;;;;5.13;2.60;;;;;;;9.95;100.00;98000.28;10441289;28;20054;-53
2022/01/02 16:54:00;;;;;;;5.43;2.53;;;;;;;9.85;100.00;98016.59;10432750;28;20055;-56
2022/01/02 16:59:04;;;;;;;5.35;3.05;;;;;;;9.82;100.00;97998.09;10416680;28;20111;-55
2022/01/02 17:04:07;;;;;;;7.22;3.25;;;;;;;9.75;100.00;97995.22;10415314;28;20048;-53
2022/01/02 17:09:13;;;;;;;5.03;2.92;;;;;;;9.72;100.00;97982.09;10416697;28;20037;-62
2022/01/02 17:14:16;;;;;;;4.78;3.00;;;;;;;9.67;100.00;97984.47;10421639;28;20473;-53
2022/01/02 17:19:20;;;;;;;5.68;3.20;;;;;;;9.68;100.00;97976.22;10433701;28;20044;-58
2022/01/02 17:24:26;;;;;;;4.40;2.97;;;;;;;9.66;100.00;97988.16;10426591;28;20068;-54
2022/01/02 17:29:30;;;;;;;7.90;4.13;;;;;;;9.70;100.00;97995.72;10431761;28;20045;-55
2022/01/02 17:34:35;;;;;;;4.63;2.85;;;;;;;9.66;100.00;97990.84;10432964;28;20064;-53
2022/01/02 17:39:40;;;;;;;6.75;3.15;;;;;;;9.65;100.00;97986.47;10439406;28;20045;-55
2022/01/02 17:44:43;;;;;;;7.78;3.00;;;;;;;9.65;100.00;97990.00;10456479;28;20041;-59
2022/01/02 17:49:47;;;;;;;5.32;2.65;;;;;;;9.74;100.00;97982.78;10448860;28;20501;-57
2022/01/02 17:54:52;;;;;;;8.95;2.80;;;;;;;9.75;100.00;97976.41;10465518;28;20071;-54
2022/01/02 17:59:55;;;;;;;4.72;2.47;;;;;;;9.80;100.00;97981.28;10468850;28;20084;-58
2022/01/02 18:04:59;;;;;;;3.67;2.60;;;;;;;9.75;100.00;97972.88;10458156;28;20056;-55
2022/01/02 18:10:08;;;;;;;5.38;2.65;;;;;;;9.73;100.00;97959.59;10458038;28;20512;-62
2022/01/02 18:15:17;;;;;;;6.88;3.00;;;;;;;9.71;100.00;97943.63;10487301;28;20063;-61
2022/01/02 18:20:33;;;;;;;8.70;3.10;;;;;;;9.69;100.00;97944.81;10466908;28;20029;-59
2022/01/02 18:25:43;;;;;;;5.97;3.22;;;;;;;9.63;100.00;97945.47;10462297;28;20044;-60
2022/01/02 18:30:48;;;;;;;5.90;3.17;;;;;;;9.54;100.00;97937.41;10470336;28;20036;-60
2022/01/02 18:35:51;;;;;;;5.70;3.00;;;;;;;9.36;100.00;97942.06;10449229;28;20057;-60
2022/01/02 18:40:56;;;;;;;5.88;3.00;;;;;;;9.22;100.00;97957.00;10460269;28;20583;-65
2022/01/02 18:46:00;;;;;;;6.18;2.80;;;;;;;9.13;100.00;97964.19;10449477;28;20120;-59
2022/01/02 18:51:05;;;;;;;8.10;3.20;;;;;;;9.16;100.00;97969.22;10448388;28;20048;-59
2022/01/02 18:56:10;;;;;;;5.68;3.15;;;;;;;9.13;100.00;97955.28;10436645;28;20044;-60
2022/01/02 19:01:13;;;;;;;6.28;3.15;;;;;;;9.09;100.00;97973.59;10449975;28;20084;-61
2022/01/02 19:06:17;;;;;;;5.57;3.22;;;;;;;9.02;100.00;97959.09;10441785;28;20056;-60
2022/01/02 19:11:23;;;;;;;5.88;3.40;;;;;;;9.00;100.00;97958.41;10450221;28;20143;-59
2022/01/02 19:16:27;;;;;;;8.00;3.35;;;;;;;9.00;100.00;97939.63;10452774;28;20045;-60
2022/01/02 19:21:31;;;;;;;7.05;3.50;;;;;;;9.03;100.00;97950.91;10448622;28;20484;-52
2022/01/02 19:26:36;;;;;;;5.20;2.92;;;;;;;9.08;100.00;97936.97;10437355;28;20049;-53
2022/01/02 19:31:40;;;;;;;6.07;3.10;;;;;;;9.12;100.00;97932.94;10460449;28;20114;-59
2022/01/02 19:36:43;;;;;;;6.25;3.17;;;;;;;9.20;100.00;97919.53;10455039;28;20043;-60
2022/01/02 19:41:49;;;;;;;5.88;2.78;;;;;;;9.25;100.00;97924.41;10454395;28;20083;-63
2022/01/02 19:46:53;;;;;;;5.80;2.72;;;;;;;9.34;100.00;97938.72;10457327;28;20067;-59
2022/01/02 19:51:57;;;;;;;4.70;2.63;;;;;;;9.36;100.00;97928.63;10459461;28;20052;-62
2022/01/02 19:57:02;;;;;;;5.07;2.80;;;;;;;9.41;100.00;97948.63;10457889;28;20045;-57
2022/01/02 20:02:07;;;;;;;5.47;2.90;;;;;;;9.41;100.00;97937.03;10447130;28;20143;-57
2022/01/02 20:07:11;;;;;;;6.25;2.80;;;;;;;9.41;100.00;97947.78;10467258;28;20493;-57
2022/01/02 20:12:15;;;;;;;5.35;2.53;;;;;;;9.41;100.00;97942.41;10450575;28;20052;-58
2022/01/02 20:17:19;;;;;;;9.50;3.10;;;;;;;9.47;100.00;97946.28;10456295;28;20037;-61
2022/01/02 20:22:23;;;;;;;6.68;2.80;;;;;;;9.49;100.00;97939.72;10451989;28;20555;-58
2022/01/02 20:27:27;;;;;;;6.22;2.47;;;;;;;9.49;100.00;97922.78;10462944;28;20048;-55
2022/01/02 20:32:30;;;;;;;3.97;2.50;;;;;;;9.48;100.00;97919.22;10452056;28;20515;-53
2022/01/02 20:37:34;;;;;;;6.80;2.50;;;;;;;9.42;100.00;97933.34;10449583;28;20134;-53
2022/01/02 20:42:39;;;;;;;5.97;2.70;;;;;;;9.34;100.00;97919.91;10429267;28;20040;-59
2022/01/02 20:47:42;;;;;;;6.03;2.85;;;;;;;9.25;100.00;97895.66;10444049;28;20037;-60
2022/01/02 20:52:45;;;;;;;5.32;2.53;;;;;;;9.23;100.00;97903.06;10447106;28;20040;-60
2022/01/02 20:57:50;;;;;;;5.32;2.60;;;;;;;9.21;100.00;97901.56;10445766;28;20049;-57
2022/01/02 21:02:53;;;;;;;4.75;2.75;;;;;;;9.14;100.00;97870.97;10441827;28;20052;-57
2022/01/02 21:07:56;;;;;;;5.32;2.45;;;;;;;9.08;100.00;97867.09;10474891;23;20055;-59
2022/01/02 21:13:01;;;;;;;5.95;2.53;;;;;;;9.03;100.00;97861.38;10468292;28;20147;-59
2022/01/02 21:18:04;;;;;;;4.35;2.25;;;;;;;8.96;100.00;97868.44;10487241;28;20043;-57
2022/01/02 21:23:07;;;;;;;4.03;2.30;;;;;;;8.96;100.00;97863.06;10488856;28;20052;-57
2022/01/02 21:28:11;;;;;;;6.40;2.50;;;;;;;8.99;100.00;97852.00;10492312;28;20361;-54
2022/01/02 21:33:14;;;;;;;4.18;2.20;;;;;;;9.03;100.00;97866.75;10491396;28;20119;-54
2022/01/02 21:38:18;;;;;;;4.38;2.05;;;;;;;9.07;100.00;97852.81;10492442;28;20123;-53
2022/01/02 21:43:22;;;;;;;4.40;2.00;;;;;;;9.09;100.00;97848.13;10492787;28;20565;-54
2022/01/02 21:48:26;;;;;;;4.22;1.80;;;;;;;9.13;100.00;97837.06;10499303;28;20147;-55
2022/01/02 21:53:29;;;;;;;4.72;2.00;;;;;;;9.26;100.00;97842.78;10474214;28;20504;-54
2022/01/02 21:58:34;;;;;;;3.58;2.20;;;;;;;9.28;100.00;97847.97;10495473;28;20139;-58
2022/01/02 22:03:38;;;;;;;5.60;2.10;;;;;;;9.30;100.00;97819.91;10503616;28;20063;-56
2022/01/02 22:08:41;;;;;;;6.05;2.42;;;;;;;9.30;100.00;97824.47;10495603;28;20127;-57
2022/01/02 22:13:45;;;;;;;7.03;2.33;;;;;;;9.30;100.00;97821.78;10474095;28;20389;-56
2022/01/02 22:18:50;;;;;;;6.72;2.45;;;;;;;9.23;100.00;97802.78;10479681;28;20040;-58
2022/01/02 22:24:01;;;;;;;4.75;2.58;;;;;;;9.21;100.00;97802.97;10466819;28;20143;-57
2022/01/02 22:29:07;;;;;;;5.28;2.50;;;;;;;9.21;100.00;97804.78;10478121;28;20052;-56
2022/01/02 22:34:10;;;;;;;6.50;2.50;;;;;;;9.19;100.00;97794.22;10473073;28;20147;-57
2022/01/02 22:39:13;;;;;;;6.95;2.40;;;;;;;9.18;100.00;97779.09;10473266;28;20037;-57
2022/01/02 22:44:18;;;;;;;5.90;2.22;;;;;;;9.24;100.00;97770.34;10480179;28;20040;-59
2022/01/02 22:49:22;;;;;;;9.20;2.55;;;;;;;9.25;100.00;97761.28;10476780;28;20040;-58
2022/01/02 22:54:26;;;;;;;6.50;2.10;;;;;;;9.27;100.00;97753.06;10473845;28;20044;-59
2022/01/02 22:59:34;;;;;;;3.70;1.92;;;;;;;9.31;100.00;97750.88;10467400;28;20037;-55
2022/01/02 23:04:37;;;;;;;4.43;1.90;;;;;;;9.37;100.00;97736.75;10487378;28;20051;-57
2022/01/02 23:09:40;;;;;;;6.43;1.92;;;;;;;9.40;100.00;97725.66;10492867;28;20056;-59
2022/01/02 23:14:45;;;;;;;4.63;1.90;;;;;;;9.52;100.00;97731.53;10477205;28;20054;-57
2022/01/02 23:19:51;;;;;;;5.32;2.05;;;;;;;9.58;100.00;97727.31;10471112;28;20055;-60
2022/01/02 23:24:56;;;;;;;5.47;1.80;;;;;;;9.59;100.00;97704.75;10476467;28;20597;-59
2022/01/02 23:30:03;;;;;;;6.40;1.92;;;;;;;9.70;100.00;97710.63;10471185;28;20047;-58
2022/01/02 23:35:08;;;;;;;5.82;1.80;;;;;;;9.72;100.00;97694.28;10475952;28;20043;-59
2022/01/02 23:40:12;;;;;;;10.43;2.00;;;;;;;9.70;100.00;97707.09;10480073;28;21236;-58
2022/01/02 23:45:17;;;;;;;4.30;1.73;;;;;;;9.70;100.00;97697.16;10474348;28;20075;-58
2022/01/02 23:50:24;;;;;;;6.07;1.80;;;;;;;9.74;100.00;97686.91;10484670;28;20045;-59
2022/01/02 23:55:29;;;;;;;6.63;1.70;;;;;;;9.76;100.00;97713.66;10458158;28;20041;-60
